sensor_id;sensor_type;location;lat;lon;timestamp;pressure;altitude;pressure_sealevel;temperature;humidity
12182;BME280;6154;51.550;12.138;2022-11-20T00:01:04;100240.72;;;2.07;59.23
12182;BME280;6154;51.550;12.138;2022-11-20T00:03:52;100234.69;;;2.05;59.11
12182;BME280;6154;51.550;12.138;2022-11-20T00:06:39;100233.00;;;2.02;58.98
12182;BME280;6154;51.550;12.138;2022-11-20T00:09:26;100235.72;;;1.97;58.98
12182;BME280;6154;51.550;12.138;2022-11-20T00:12:13;100244.50;;;1.93;59.08
12182;BME280;6154;51.550;12.138;2022-11-20T00:15:01;100237.59;;;1.92;58.96
12182;BME280;6154;51.550;12.138;2022-11-20T00:17:50;100236.72;;;1.92;58.83
12182;BME280;6154;51.550;12.138;2022-11-20T00:20:37;100222.91;;;1.87;58.87
12182;BME280;6154;51.550;12.138;2022-11-20T00:23:24;100229.94;;;1.85;58.87
12182;BME280;6154;51.550;12.138;2022-11-20T00:26:12;100221.38;;;1.78;58.90
12182;BME280;6154;51.550;12.138;2022-11-20T00:29:00;100217.91;;;1.78;58.93
12182;BME280;6154;51.550;12.138;2022-11-20T00:31:48;100217.97;;;1.75;58.97
12182;BME280;6154;51.550;12.138;2022-11-20T00:34:36;100223.28;;;1.71;58.93
12182;BME280;6154;51.550;12.138;2022-11-20T00:37:24;100214.59;;;1.69;58.93
12182;BME280;6154;51.550;12.138;2022-11-20T00:40:12;100217.25;;;1.68;58.93
12182;BME280;6154;51.550;12.138;2022-11-20T00:42:59;100216.50;;;1.63;58.93
12182;BME280;6154;51.550;12.138;2022-11-20T00:45:46;100215.75;;;1.58;59.09
12182;BME280;6154;51.550;12.138;2022-11-20T00:48:33;100218.38;;;1.56;59.16
12182;BME280;6154;51.550;12.138;2022-11-20T00:51:22;100214.09;;;1.54;59.17
12182;BME280;6154;51.550;12.138;2022-11-20T00:54:10;100202.94;;;1.47;59.32
12182;BME280;6154;51.550;12.138;2022-11-20T00:56:57;100206.37;;;1.49;59.31
12182;BME280;6154;51.550;12.138;2022-11-20T00:59:45;100203.75;;;1.49;59.23
12182;BME280;6154;51.550;12.138;2022-11-20T01:02:32;100204.69;;;1.47;59.30
12182;BME280;6154;51.550;12.138;2022-11-20T01:05:19;100208.19;;;1.46;59.34
12182;BME280;6154;51.550;12.138;2022-11-20T01:08:10;100205.63;;;1.44;59.47
12182;BME280;6154;51.550;12.138;2022-11-20T01:11:01;100205.59;;;1.46;59.46
12182;BME280;6154;51.550;12.138;2022-11-20T01:13:50;100197.72;;;1.47;59.24
12182;BME280;6154;51.550;12.138;2022-11-20T01:16:40;100195.16;;;1.46;59.13
12182;BME280;6154;51.550;12.138;2022-11-20T01:19:27;100205.66;;;1.42;59.22
12182;BME280;6154;51.550;12.138;2022-11-20T01:22:15;100204.81;;;1.42;59.24
12182;BME280;6154;51.550;12.138;2022-11-20T01:25:04;100203.09;;;1.41;59.34
12182;BME280;6154;51.550;12.138;2022-11-20T01:27:52;100202.34;;;1.34;59.44
12182;BME280;6154;51.550;12.138;2022-11-20T01:30:38;100201.41;;;1.37;59.43
12182;BME280;6154;51.550;12.138;2022-11-20T01:33:26;100205.84;;;1.33;59.47
12182;BME280;6154;51.550;12.138;2022-11-20T01:36:14;100209.31;;;1.34;59.55
12182;BME280;6154;51.550;12.138;2022-11-20T01:39:04;100208.56;;;1.27;59.55
12182;BME280;6154;51.550;12.138;2022-11-20T01:41:54;100191.19;;;1.28;59.55
12182;BME280;6154;51.550;12.138;2022-11-20T01:49:59;100192.00;;;1.30;59.63
12182;BME280;6154;51.550;12.138;2022-11-20T01:52:51;100186.16;;;1.19;59.67
12182;BME280;6154;51.550;12.138;2022-11-20T01:55:42;100186.25;;;1.15;59.85
12182;BME280;6154;51.550;12.138;2022-11-20T01:58:35;100189.63;;;1.21;59.64
12182;BME280;6154;51.550;12.138;2022-11-20T02:01:23;100178.53;;;1.11;59.80
12182;BME280;6154;51.550;12.138;2022-11-20T02:04:11;100185.38;;;1.15;59.56
12182;BME280;6154;51.550;12.138;2022-11-20T02:07:00;100175.81;;;1.15;59.67
12182;BME280;6154;51.550;12.138;2022-11-20T02:09:48;100177.50;;;1.18;59.59
12182;BME280;6154;51.550;12.138;2022-11-20T02:12:40;100170.50;;;1.20;59.41
12182;BME280;6154;51.550;12.138;2022-11-20T05:14:19;100089.53;;;0.47;60.34
12182;BME280;6154;51.550;12.138;2022-11-20T06:45:34;100088.09;;;0.33;60.97
12182;BME280;6154;51.550;12.138;2022-11-20T06:48:22;100085.44;;;0.34;61.02
12182;BME280;6154;51.550;12.138;2022-11-20T06:51:09;100080.25;;;0.34;60.89
12182;BME280;6154;51.550;12.138;2022-11-20T06:53:57;100068.00;;;0.39;60.82
12182;BME280;6154;51.550;12.138;2022-11-20T06:56:46;100073.19;;;0.39;61.14
12182;BME280;6154;51.550;12.138;2022-11-20T06:59:33;100077.41;;;0.46;60.90
12182;BME280;6154;51.550;12.138;2022-11-20T07:02:21;100059.19;;;0.46;61.13
12182;BME280;6154;51.550;12.138;2022-11-20T07:05:08;100057.47;;;0.45;60.88
12182;BME280;6154;51.550;12.138;2022-11-20T07:07:55;100068.56;;;0.55;60.93
12182;BME280;6154;51.550;12.138;2022-11-20T07:10:42;100067.63;;;0.57;60.85
12182;BME280;6154;51.550;12.138;2022-11-20T07:13:30;100072.78;;;0.61;60.87
12182;BME280;6154;51.550;12.138;2022-11-20T07:16:17;100069.28;;;0.62;60.60
12182;BME280;6154;51.550;12.138;2022-11-20T07:19:06;100067.31;;;0.73;60.37
12182;BME280;6154;51.550;12.138;2022-11-20T07:21:53;100066.28;;;0.80;60.28
12182;BME280;6154;51.550;12.138;2022-11-20T07:24:41;100061.88;;;0.83;60.11
12182;BME280;6154;51.550;12.138;2022-11-20T07:27:31;100061.84;;;0.85;59.89
12182;BME280;6154;51.550;12.138;2022-11-20T07:30:18;100064.09;;;1.02;60.28
12182;BME280;6154;51.550;12.138;2022-11-20T07:33:05;100062.16;;;1.11;60.33
12182;BME280;6154;51.550;12.138;2022-11-20T07:35:53;100056.03;;;1.12;59.83
12182;BME280;6154;51.550;12.138;2022-11-20T07:38:40;100063.63;;;1.23;60.29
12182;BME280;6154;51.550;12.138;2022-11-20T07:41:27;100061.78;;;1.27;60.35
12182;BME280;6154;51.550;12.138;2022-11-20T07:44:15;100066.34;;;1.17;60.03
12182;BME280;6154;51.550;12.138;2022-11-20T07:47:02;100068.56;;;1.34;60.16
12182;BME280;6154;51.550;12.138;2022-11-20T07:49:49;100069.69;;;1.24;59.96
12182;BME280;6154;51.550;12.138;2022-11-20T07:52:37;100058.88;;;1.39;60.14
12182;BME280;6154;51.550;12.138;2022-11-20T07:55:25;100063.28;;;1.37;59.95
12182;BME280;6154;51.550;12.138;2022-11-20T07:58:12;100062.97;;;1.51;59.83
12182;BME280;6154;51.550;12.138;2022-11-20T08:01:02;100071.09;;;1.74;60.13
12182;BME280;6154;51.550;12.138;2022-11-20T08:03:49;100065.31;;;1.61;59.52
12182;BME280;6154;51.550;12.138;2022-11-20T08:06:36;100066.63;;;1.78;59.71
12182;BME280;6154;51.550;12.138;2022-11-20T08:09:25;100054.31;;;1.84;59.52
12182;BME280;6154;51.550;12.138;2022-11-20T08:12:17;100053.78;;;2.04;59.74
12182;BME280;6154;51.550;12.138;2022-11-20T08:15:32;100058.19;;;2.02;59.77
12182;BME280;6154;51.550;12.138;2022-11-20T08:18:19;100057.31;;;2.03;59.53
12182;BME280;6154;51.550;12.138;2022-11-20T08:21:21;100061.47;;;2.09;59.40
12182;BME280;6154;51.550;12.138;2022-11-20T08:24:10;100054.59;;;2.06;59.43
12182;BME280;6154;51.550;12.138;2022-11-20T08:27:01;100061.28;;;2.16;59.44
12182;BME280;6154;51.550;12.138;2022-11-20T08:29:49;100063.38;;;2.04;59.74
12182;BME280;6154;51.550;12.138;2022-11-20T08:32:36;100065.50;;;2.20;59.21
12182;BME280;6154;51.550;12.138;2022-11-20T08:35:23;100068.50;;;2.39;59.38
12182;BME280;6154;51.550;12.138;2022-11-20T08:38:10;100065.91;;;2.38;59.67
12182;BME280;6154;51.550;12.138;2022-11-20T08:40:57;100069.31;;;2.41;59.65
12182;BME280;6154;51.550;12.138;2022-11-20T08:44:05;100060.50;;;2.45;59.67
12182;BME280;6154;51.550;12.138;2022-11-20T08:46:55;100064.34;;;2.63;59.52
12182;BME280;6154;51.550;12.138;2022-11-20T08:49:42;100066.00;;;2.66;59.85
12182;BME280;6154;51.550;12.138;2022-11-20T08:52:29;100069.38;;;2.69;59.66
12182;BME280;6154;51.550;12.138;2022-11-20T08:55:20;100075.06;;;2.54;60.12
12182;BME280;6154;51.550;12.138;2022-11-20T08:58:08;100072.47;;;2.83;59.98
12182;BME280;6154;51.550;12.138;2022-11-20T09:00:56;100070.94;;;2.76;59.45
12182;BME280;6154;51.550;12.138;2022-11-20T09:03:43;100064.53;;;2.86;59.74
12182;BME280;6154;51.550;12.138;2022-11-20T09:06:31;100055.25;;;3.06;59.32
12182;BME280;6154;51.550;12.138;2022-11-20T09:09:18;100065.84;;;3.01;59.88
12182;BME280;6154;51.550;12.138;2022-11-20T09:12:06;100058.75;;;3.05;59.52
12182;BME280;6154;51.550;12.138;2022-11-20T09:14:53;100054.56;;;3.27;59.54
12182;BME280;6154;51.550;12.138;2022-11-20T09:17:41;100053.31;;;3.12;58.52
12182;BME280;6154;51.550;12.138;2022-11-20T09:20:29;100055.44;;;3.28;58.80
12182;BME280;6154;51.550;12.138;2022-11-20T09:23:16;100052.62;;;3.34;59.35
12182;BME280;6154;51.550;12.138;2022-11-20T09:26:05;100049.22;;;3.58;59.09
12182;BME280;6154;51.550;12.138;2022-11-20T09:28:52;100048.59;;;3.52;58.24
12182;BME280;6154;51.550;12.138;2022-11-20T09:31:42;100052.31;;;3.71;57.81
12182;BME280;6154;51.550;12.138;2022-11-20T09:34:31;100039.31;;;3.94;58.17
12182;BME280;6154;51.550;12.138;2022-11-20T09:37:18;100043.38;;;4.03;58.69
12182;BME280;6154;51.550;12.138;2022-11-20T09:40:09;100032.59;;;4.11;58.95
12182;BME280;6154;51.550;12.138;2022-11-20T09:43:11;100032.28;;;4.20;58.57
12182;BME280;6154;51.550;12.138;2022-11-20T09:46:07;100033.63;;;4.31;58.03
12182;BME280;6154;51.550;12.138;2022-11-20T09:52:14;100029.53;;;4.48;58.06
12182;BME280;6154;51.550;12.138;2022-11-20T09:55:08;100034.63;;;4.76;58.14
12182;BME280;6154;51.550;12.138;2022-11-20T09:57:57;100038.66;;;4.84;57.73
12182;BME280;6154;51.550;12.138;2022-11-20T10:00:46;100035.28;;;5.04;58.28
12182;BME280;6154;51.550;12.138;2022-11-20T10:03:39;100031.88;;;5.02;57.82
12182;BME280;6154;51.550;12.138;2022-11-20T10:06:30;100022.03;;;5.07;58.19
12182;BME280;6154;51.550;12.138;2022-11-20T10:09:23;100030.03;;;5.26;57.87
12182;BME280;6154;51.550;12.138;2022-11-20T10:12:18;100016.72;;;5.31;57.67
12182;BME280;6154;51.550;12.138;2022-11-20T10:15:15;100010.47;;;5.35;57.17
12182;BME280;6154;51.550;12.138;2022-11-20T10:18:11;100010.37;;;5.36;57.43
12182;BME280;6154;51.550;12.138;2022-11-20T10:21:08;100008.19;;;5.47;57.18
12182;BME280;6154;51.550;12.138;2022-11-20T10:27:29;100004.59;;;5.70;57.50
12182;BME280;6154;51.550;12.138;2022-11-20T10:30:21;100005.12;;;5.78;56.84
12182;BME280;6154;51.550;12.138;2022-11-20T10:33:15;100001.06;;;5.71;56.67
12182;BME280;6154;51.550;12.138;2022-11-20T10:36:10;99996.97;;;6.07;57.53
12182;BME280;6154;51.550;12.138;2022-11-20T10:39:05;100003.31;;;6.01;57.09
12182;BME280;6154;51.550;12.138;2022-11-20T10:41:52;99993.94;;;6.16;57.56
12182;BME280;6154;51.550;12.138;2022-11-20T10:44:47;99984.75;;;6.05;57.05
12182;BME280;6154;51.550;12.138;2022-11-20T10:47:52;99985.97;;;6.17;57.46
12182;BME280;6154;51.550;12.138;2022-11-20T10:50:52;99984.94;;;6.21;57.55
12182;BME280;6154;51.550;12.138;2022-11-20T10:53:55;99972.28;;;6.29;57.23
12182;BME280;6154;51.550;12.138;2022-11-20T10:56:46;99969.97;;;6.23;56.32
12182;BME280;6154;51.550;12.138;2022-11-20T11:00:04;99967.34;;;6.23;57.00
12182;BME280;6154;51.550;12.138;2022-11-20T11:02:53;99964.94;;;6.38;56.33
12182;BME280;6154;51.550;12.138;2022-11-20T11:05:44;99965.59;;;6.43;56.78
12182;BME280;6154;51.550;12.138;2022-11-20T11:08:38;99958.19;;;6.51;56.91
12182;BME280;6154;51.550;12.138;2022-11-20T11:11:28;99953.50;;;6.39;56.36
12182;BME280;6154;51.550;12.138;2022-11-20T11:14:16;99950.44;;;6.48;56.49
12182;BME280;6154;51.550;12.138;2022-11-20T11:17:04;99944.06;;;6.34;56.47
12182;BME280;6154;51.550;12.138;2022-11-20T11:20:03;99948.31;;;6.56;56.77
12182;BME280;6154;51.550;12.138;2022-11-20T11:22:53;99949.75;;;6.63;57.00
12182;BME280;6154;51.550;12.138;2022-11-20T11:25:40;99944.50;;;6.63;56.68
12182;BME280;6154;51.550;12.138;2022-11-20T11:28:28;99938.16;;;6.48;56.71
12182;BME280;6154;51.550;12.138;2022-11-20T11:31:22;99940.09;;;6.63;56.24
12182;BME280;6154;51.550;12.138;2022-11-20T11:34:13;99938.06;;;6.87;56.39
12182;BME280;6154;51.550;12.138;2022-11-20T11:37:01;99937.47;;;7.00;56.70
12182;BME280;6154;51.550;12.138;2022-11-20T11:39:49;99936.03;;;6.75;55.76
12182;BME280;6154;51.550;12.138;2022-11-20T11:42:58;99932.84;;;7.05;56.54
12182;BME280;6154;51.550;12.138;2022-11-20T11:45:52;99925.56;;;7.10;56.49
12182;BME280;6154;51.550;12.138;2022-11-20T11:48:38;99927.22;;;7.12;55.97
12182;BME280;6154;51.550;12.138;2022-11-20T11:51:31;99927.75;;;7.19;56.40
12182;BME280;6154;51.550;12.138;2022-11-20T11:54:23;99929.16;;;7.26;55.57
12182;BME280;6154;51.550;12.138;2022-11-20T11:57:20;99933.94;;;7.18;55.08
12182;BME280;6154;51.550;12.138;2022-11-20T12:00:13;99925.97;;;7.19;54.99
12182;BME280;6154;51.550;12.138;2022-11-20T12:03:06;99924.91;;;7.24;55.51
12182;BME280;6154;51.550;12.138;2022-11-20T12:05:58;99916.09;;;7.25;54.86
12182;BME280;6154;51.550;12.138;2022-11-20T12:08:52;99923.28;;;7.38;55.59
12182;BME280;6154;51.550;12.138;2022-11-20T12:11:51;99912.00;;;7.36;55.62
12182;BME280;6154;51.550;12.138;2022-11-20T12:14:42;99915.78;;;7.48;55.18
12182;BME280;6154;51.550;12.138;2022-11-20T12:17:30;99911.06;;;7.55;55.60
12182;BME280;6154;51.550;12.138;2022-11-20T12:20:17;99909.03;;;7.77;55.79
12182;BME280;6154;51.550;12.138;2022-11-20T12:23:10;99911.34;;;7.83;55.26
12182;BME280;6154;51.550;12.138;2022-11-20T12:26:08;99912.34;;;7.81;54.13
12182;BME280;6154;51.550;12.138;2022-11-20T12:29:05;99915.56;;;7.53;52.96
12182;BME280;6154;51.550;12.138;2022-11-20T12:32:10;99910.03;;;7.74;53.73
12182;BME280;6154;51.550;12.138;2022-11-20T12:35:19;99911.28;;;7.67;53.97
12182;BME280;6154;51.550;12.138;2022-11-20T12:38:41;99910.91;;;7.58;53.25
12182;BME280;6154;51.550;12.138;2022-11-20T12:41:45;99904.50;;;7.96;53.99
12182;BME280;6154;51.550;12.138;2022-11-20T12:45:04;99906.38;;;7.94;54.36
12182;BME280;6154;51.550;12.138;2022-11-20T12:48:14;99898.91;;;8.02;54.46
12182;BME280;6154;51.550;12.138;2022-11-20T12:51:14;99884.63;;;8.06;54.24
12182;BME280;6154;51.550;12.138;2022-11-20T12:54:24;99876.63;;;8.08;54.80
12182;BME280;6154;51.550;12.138;2022-11-20T12:57:21;99870.28;;;8.12;54.01
12182;BME280;6154;51.550;12.138;2022-11-20T13:00:14;99871.13;;;8.13;54.07
12182;BME280;6154;51.550;12.138;2022-11-20T13:03:27;99873.50;;;8.17;54.88
12182;BME280;6154;51.550;12.138;2022-11-20T13:06:19;99871.13;;;8.13;53.74
12182;BME280;6154;51.550;12.138;2022-11-20T13:09:08;99871.72;;;8.18;54.38
12182;BME280;6154;51.550;12.138;2022-11-20T13:12:03;99878.44;;;8.07;54.52
12182;BME280;6154;51.550;12.138;2022-11-20T13:15:00;99873.47;;;8.01;54.17
12182;BME280;6154;51.550;12.138;2022-11-20T13:17:54;99873.25;;;8.06;54.79
12182;BME280;6154;51.550;12.138;2022-11-20T13:20:46;99866.09;;;8.08;54.48
12182;BME280;6154;51.550;12.138;2022-11-20T13:23:35;99877.97;;;7.99;54.72
12182;BME280;6154;51.550;12.138;2022-11-20T13:26:23;99873.56;;;8.00;54.55
12182;BME280;6154;51.550;12.138;2022-11-20T13:29:15;99858.47;;;8.03;54.64
12182;BME280;6154;51.550;12.138;2022-11-20T13:32:06;99865.88;;;8.13;54.65
12182;BME280;6154;51.550;12.138;2022-11-20T13:34:54;99863.03;;;8.00;54.24
12182;BME280;6154;51.550;12.138;2022-11-20T13:37:42;99867.78;;;7.93;52.85
12182;BME280;6154;51.550;12.138;2022-11-20T13:40:31;99862.94;;;8.01;54.01
12182;BME280;6154;51.550;12.138;2022-11-20T13:43:22;99858.22;;;7.75;54.59
12182;BME280;6154;51.550;12.138;2022-11-20T13:46:10;99863.16;;;7.81;54.84
12182;BME280;6154;51.550;12.138;2022-11-20T13:49:00;99868.09;;;7.87;54.86
12182;BME280;6154;51.550;12.138;2022-11-20T13:52:02;99877.78;;;7.87;54.53
12182;BME280;6154;51.550;12.138;2022-11-20T13:54:58;99871.66;;;7.86;54.55
12182;BME280;6154;51.550;12.138;2022-11-20T13:58:03;99868.31;;;7.49;52.33
12182;BME280;6154;51.550;12.138;2022-11-20T14:00:57;99863.41;;;7.59;54.52
12182;BME280;6154;51.550;12.138;2022-11-20T14:03:47;99871.28;;;7.26;54.91
12182;BME280;6154;51.550;12.138;2022-11-20T14:06:52;99868.66;;;7.43;55.22
12182;BME280;6154;51.550;12.138;2022-11-20T14:09:49;99876.69;;;7.40;54.27
12182;BME280;6154;51.550;12.138;2022-11-20T14:12:37;99879.78;;;7.31;54.48
12182;BME280;6154;51.550;12.138;2022-11-20T14:15:28;99875.53;;;7.29;54.07
12182;BME280;6154;51.550;12.138;2022-11-20T14:18:20;99875.12;;;7.19;54.74
12182;BME280;6154;51.550;12.138;2022-11-20T14:21:09;99868.62;;;7.09;55.25
12182;BME280;6154;51.550;12.138;2022-11-20T14:24:05;99872.50;;;7.02;54.11
12182;BME280;6154;51.550;12.138;2022-11-20T14:26:53;99868.78;;;7.06;54.64
12182;BME280;6154;51.550;12.138;2022-11-20T14:29:41;99865.38;;;7.04;54.79
12182;BME280;6154;51.550;12.138;2022-11-20T14:32:31;99878.06;;;6.96;54.52
12182;BME280;6154;51.550;12.138;2022-11-20T14:35:21;99872.47;;;6.84;54.64
12182;BME280;6154;51.550;12.138;2022-11-20T14:38:12;99872.56;;;6.83;54.99
12182;BME280;6154;51.550;12.138;2022-11-20T14:41:17;99874.38;;;6.81;54.85
12182;BME280;6154;51.550;12.138;2022-11-20T14:44:05;99872.50;;;6.66;54.01
12182;BME280;6154;51.550;12.138;2022-11-20T14:46:55;99866.88;;;6.73;54.95
12182;BME280;6154;51.550;12.138;2022-11-20T14:50:02;99874.13;;;6.68;55.19
12182;BME280;6154;51.550;12.138;2022-11-20T14:52:56;99868.38;;;6.60;55.22
12182;BME280;6154;51.550;12.138;2022-11-20T14:55:44;99869.41;;;6.39;55.00
12182;BME280;6154;51.550;12.138;2022-11-20T14:58:33;99864.37;;;6.34;55.36
12182;BME280;6154;51.550;12.138;2022-11-20T15:01:25;99858.53;;;6.27;55.46
12182;BME280;6154;51.550;12.138;2022-11-20T15:04:13;99865.94;;;6.19;55.51
12182;BME280;6154;51.550;12.138;2022-11-20T15:07:00;99860.97;;;6.13;55.68
12182;BME280;6154;51.550;12.138;2022-11-20T15:09:47;99869.19;;;6.05;55.89
12182;BME280;6154;51.550;12.138;2022-11-20T15:12:36;99872.16;;;5.98;56.28
12182;BME280;6154;51.550;12.138;2022-11-20T15:15:30;99870.84;;;5.88;56.36
12182;BME280;6154;51.550;12.138;2022-11-20T15:18:21;99873.16;;;5.75;56.65
12182;BME280;6154;51.550;12.138;2022-11-20T15:21:11;99875.41;;;5.64;56.45
12182;BME280;6154;51.550;12.138;2022-11-20T15:23:58;99875.59;;;5.59;56.91
12182;BME280;6154;51.550;12.138;2022-11-20T15:26:46;99875.88;;;5.53;56.78
12182;BME280;6154;51.550;12.138;2022-11-20T15:29:33;99875.22;;;5.48;56.79
12182;BME280;6154;51.550;12.138;2022-11-20T15:32:21;99864.19;;;5.40;56.92
12182;BME280;6154;51.550;12.138;2022-11-20T15:35:09;99863.87;;;5.27;57.85
12182;BME280;6154;51.550;12.138;2022-11-20T15:37:57;99862.78;;;5.33;57.93
12182;BME280;6154;51.550;12.138;2022-11-20T15:40:45;99865.56;;;5.28;57.67
12182;BME280;6154;51.550;12.138;2022-11-20T15:43:32;99867.56;;;5.23;58.00
12182;BME280;6154;51.550;12.138;2022-11-20T15:46:23;99866.78;;;5.21;57.77
12182;BME280;6154;51.550;12.138;2022-11-20T15:49:15;99862.88;;;5.09;58.48
12182;BME280;6154;51.550;12.138;2022-11-20T15:52:04;99861.84;;;5.13;57.88
12182;BME280;6154;51.550;12.138;2022-11-20T15:54:51;99863.78;;;5.08;58.14
12182;BME280;6154;51.550;12.138;2022-11-20T15:57:38;99855.06;;;5.08;57.55
12182;BME280;6154;51.550;12.138;2022-11-20T16:00:25;99857.91;;;5.03;57.85
12182;BME280;6154;51.550;12.138;2022-11-20T16:03:13;99853.63;;;5.01;57.56
12182;BME280;6154;51.550;12.138;2022-11-20T16:06:01;99853.81;;;4.96;58.07
12182;BME280;6154;51.550;12.138;2022-11-20T16:08:48;99842.34;;;4.99;57.49
12182;BME280;6154;51.550;12.138;2022-11-20T16:11:35;99844.50;;;4.89;57.94
12182;BME280;6154;51.550;12.138;2022-11-20T16:14:23;99847.97;;;4.89;57.97
12182;BME280;6154;51.550;12.138;2022-11-20T16:17:27;99848.16;;;4.85;57.91
12182;BME280;6154;51.550;12.138;2022-11-20T16:20:28;99849.19;;;4.81;57.78
12182;BME280;6154;51.550;12.138;2022-11-20T16:23:17;99852.06;;;4.75;58.26
12182;BME280;6154;51.550;12.138;2022-11-20T16:26:09;99846.91;;;4.73;58.26
12182;BME280;6154;51.550;12.138;2022-11-20T16:28:59;99843.44;;;4.73;58.04
12182;BME280;6154;51.550;12.138;2022-11-20T16:31:46;99858.34;;;4.71;58.13
12182;BME280;6154;51.550;12.138;2022-11-20T16:34:33;99850.59;;;4.68;58.19
12182;BME280;6154;51.550;12.138;2022-11-20T16:37:20;99845.66;;;4.60;58.64
12182;BME280;6154;51.550;12.138;2022-11-20T16:40:10;99846.41;;;4.64;58.07
12182;BME280;6154;51.550;12.138;2022-11-20T16:43:07;99839.66;;;4.58;58.02
12182;BME280;6154;51.550;12.138;2022-11-20T16:45:55;99830.31;;;4.51;58.66
12182;BME280;6154;51.550;12.138;2022-11-20T16:48:42;99829.59;;;4.47;58.62
12182;BME280;6154;51.550;12.138;2022-11-20T16:51:32;99831.19;;;4.51;58.10
12182;BME280;6154;51.550;12.138;2022-11-20T16:54:20;99837.53;;;4.46;58.10
12182;BME280;6154;51.550;12.138;2022-11-20T16:57:09;99838.72;;;4.37;58.33
12182;BME280;6154;51.550;12.138;2022-11-20T16:59:57;99844.03;;;4.36;58.49
12182;BME280;6154;51.550;12.138;2022-11-20T17:02:47;99839.94;;;4.28;58.91
12182;BME280;6154;51.550;12.138;2022-11-20T17:05:34;99843.59;;;4.24;58.98
12182;BME280;6154;51.550;12.138;2022-11-20T17:08:22;99828.03;;;4.21;59.22
12182;BME280;6154;51.550;12.138;2022-11-20T17:11:12;99824.66;;;4.18;59.07
12182;BME280;6154;51.550;12.138;2022-11-20T17:14:00;99822.94;;;4.17;58.81
12182;BME280;6154;51.550;12.138;2022-11-20T17:16:48;99804.63;;;4.17;58.56
12182;BME280;6154;51.550;12.138;2022-11-20T17:19:35;99802.91;;;4.16;58.50
12182;BME280;6154;51.550;12.138;2022-11-20T17:22:22;99800.50;;;4.11;58.55
12182;BME280;6154;51.550;12.138;2022-11-20T17:25:09;99798.03;;;4.07;58.70
12182;BME280;6154;51.550;12.138;2022-11-20T17:27:57;99802.47;;;4.04;58.74
12182;BME280;6154;51.550;12.138;2022-11-20T17:30:45;99813.09;;;4.01;58.87
12182;BME280;6154;51.550;12.138;2022-11-20T17:33:33;99809.63;;;3.99;58.77
12182;BME280;6154;51.550;12.138;2022-11-20T17:36:21;99813.31;;;3.95;58.93
12182;BME280;6154;51.550;12.138;2022-11-20T17:39:08;99818.47;;;3.97;58.59
12182;BME280;6154;51.550;12.138;2022-11-20T17:41:55;99806.44;;;3.93;58.64
12182;BME280;6154;51.550;12.138;2022-11-20T17:44:56;99799.44;;;3.93;58.29
12182;BME280;6154;51.550;12.138;2022-11-20T17:47:45;99809.97;;;3.92;58.15
12182;BME280;6154;51.550;12.138;2022-11-20T17:50:33;99799.66;;;3.87;58.00
12182;BME280;6154;51.550;12.138;2022-11-20T17:53:20;99788.37;;;3.85;57.96
12182;BME280;6154;51.550;12.138;2022-11-20T17:56:07;99791.16;;;3.81;58.03
12182;BME280;6154;51.550;12.138;2022-11-20T17:59:12;99792.06;;;3.80;58.11
12182;BME280;6154;51.550;12.138;2022-11-20T18:02:00;99795.66;;;3.77;57.89
12182;BME280;6154;51.550;12.138;2022-11-20T18:04:50;99794.09;;;3.73;58.02
12182;BME280;6154;51.550;12.138;2022-11-20T18:07:37;99781.94;;;3.70;58.00
12182;BME280;6154;51.550;12.138;2022-11-20T18:10:28;99786.41;;;3.68;57.88
12182;BME280;6154;51.550;12.138;2022-11-20T18:13:15;99791.81;;;3.64;57.99
12182;BME280;6154;51.550;12.138;2022-11-20T18:16:05;99789.19;;;3.64;58.10
12182;BME280;6154;51.550;12.138;2022-11-20T18:18:53;99785.88;;;3.59;58.37
12182;BME280;6154;51.550;12.138;2022-11-20T18:21:42;99792.22;;;3.53;58.98
12182;BME280;6154;51.550;12.138;2022-11-20T18:24:30;99789.47;;;3.56;58.88
12182;BME280;6154;51.550;12.138;2022-11-20T18:27:19;99786.84;;;3.56;58.67
12182;BME280;6154;51.550;12.138;2022-11-20T18:30:09;99778.22;;;3.54;58.95
12182;BME280;6154;51.550;12.138;2022-11-20T18:32:57;99774.06;;;3.49;59.02
12182;BME280;6154;51.550;12.138;2022-11-20T18:35:45;99776.00;;;3.43;59.42
12182;BME280;6154;51.550;12.138;2022-11-20T18:38:33;99769.97;;;3.41;59.57
12182;BME280;6154;51.550;12.138;2022-11-20T18:41:22;99765.53;;;3.43;59.47
12182;BME280;6154;51.550;12.138;2022-11-20T18:44:28;99765.41;;;3.46;59.11
12182;BME280;6154;51.550;12.138;2022-11-20T18:47:34;99765.34;;;3.48;59.07
12182;BME280;6154;51.550;12.138;2022-11-20T18:50:24;99764.37;;;3.51;59.07
12182;BME280;6154;51.550;12.138;2022-11-20T18:53:11;99763.44;;;3.53;58.98
12182;BME280;6154;51.550;12.138;2022-11-20T18:56:02;99758.09;;;3.56;58.84
12182;BME280;6154;51.550;12.138;2022-11-20T18:58:49;99761.56;;;3.57;58.82
12182;BME280;6154;51.550;12.138;2022-11-20T19:01:37;99756.31;;;3.57;58.82
12182;BME280;6154;51.550;12.138;2022-11-20T19:04:24;99742.34;;;3.58;58.76
12182;BME280;6154;51.550;12.138;2022-11-20T19:07:12;99738.81;;;3.59;58.76
12182;BME280;6154;51.550;12.138;2022-11-20T19:09:59;99727.50;;;3.58;58.93
12182;BME280;6154;51.550;12.138;2022-11-20T19:12:50;99735.28;;;3.60;58.89
12182;BME280;6154;51.550;12.138;2022-11-20T19:15:37;99741.41;;;3.59;59.07
12182;BME280;6154;51.550;12.138;2022-11-20T19:18:27;99731.78;;;3.61;59.05
12182;BME280;6154;51.550;12.138;2022-11-20T19:21:20;99717.66;;;3.65;59.29
12182;BME280;6154;51.550;12.138;2022-11-20T19:24:07;99715.69;;;3.70;59.26
12182;BME280;6154;51.550;12.138;2022-11-20T19:26:54;99705.94;;;3.75;59.22
12182;BME280;6154;51.550;12.138;2022-11-20T19:29:43;99705.78;;;3.78;59.09
12182;BME280;6154;51.550;12.138;2022-11-20T19:32:31;99702.94;;;3.84;58.88
12182;BME280;6154;51.550;12.138;2022-11-20T19:35:20;99699.28;;;3.88;59.05
12182;BME280;6154;51.550;12.138;2022-11-20T19:38:07;99699.97;;;3.93;59.05
12182;BME280;6154;51.550;12.138;2022-11-20T19:40:55;99703.37;;;3.95;58.89
12182;BME280;6154;51.550;12.138;2022-11-20T19:43:42;99684.84;;;4.00;58.95
12182;BME280;6154;51.550;12.138;2022-11-20T19:46:34;99683.06;;;4.02;59.48
12182;BME280;6154;51.550;12.138;2022-11-20T19:49:21;99690.06;;;4.01;59.66
12182;BME280;6154;51.550;12.138;2022-11-20T19:52:09;99684.06;;;3.98;60.11